sensor_id;sensor_type;location;lat;lon;timestamp;temperature;humidity
27741;DHT22;15134;48.768;9.184;2023-02-01T00:00:50;4.80;99.90
27741;DHT22;15134;48.768;9.184;2023-02-01T00:03:16;4.80;99.90
27741;DHT22;15134;48.768;9.184;2023-02-01T00:05:44;4.80;99.90
27741;DHT22;15134;48.768;9.184;2023-02-01T00:08:10;4.80;99.90
27741;DHT22;15134;48.768;9.184;2023-02-01T00:10:35;4.80;99.90
27741;DHT22;15134;48.768;9.184;2023-02-01T00:13:01;4.90;99.90
27741;DHT22;15134;48.768;9.184;2023-02-01T00:15:27;4.80;99.90
27741;DHT22;15134;48.768;9.184;2023-02-01T00:17:53;4.80;99.90
27741;DHT22;15134;48.768;9.184;2023-02-01T00:20:23;4.80;99.90
27741;DHT22;15134;48.768;9.184;2023-02-01T00:22:48;4.90;99.90
27741;DHT22;15134;48.768;9.184;2023-02-01T00:25:14;4.80;99.90
27741;DHT22;15134;48.768;9.184;2023-02-01T00:27:49;4.80;99.90
27741;DHT22;15134;48.768;9.184;2023-02-01T00:30:17;4.80;99.90
27741;DHT22;15134;48.768;9.184;2023-02-01T00:32:43;4.80;99.90
27741;DHT22;15134;48.768;9.184;2023-02-01T00:35:09;4.80;99.90
27741;DHT22;15134;48.768;9.184;2023-02-01T00:37:36;4.80;99.90
27741;DHT22;15134;48.768;9.184;2023-02-01T00:40:02;4.80;99.90
27741;DHT22;15134;48.768;9.184;2023-02-01T00:42:27;4.80;99.90
27741;DHT22;15134;48.768;9.184;2023-02-01T00:44:53;4.80;99.90
27741;DHT22;15134;48.768;9.184;2023-02-01T00:47:22;4.80;99.90
27741;DHT22;15134;48.768;9.184;2023-02-01T00:49:50;4.80;99.90
27741;DHT22;15134;48.768;9.184;2023-02-01T00:52:16;4.80;99.90
27741;DHT22;15134;48.768;9.184;2023-02-01T00:54:42;4.80;99.90
27741;DHT22;15134;48.768;9.184;2023-02-01T00:57:08;4.80;99.90
27741;DHT22;15134;48.768;9.184;2023-02-01T00:59:34;4.80;99.90
27741;DHT22;15134;48.768;9.184;2023-02-01T01:01:59;4.90;99.90
27741;DHT22;15134;48.768;9.184;2023-02-01T01:04:25;4.90;99.90
27741;DHT22;15134;48.768;9.184;2023-02-01T01:06:51;4.90;99.90
27741;DHT22;15134;48.768;9.184;2023-02-01T01:09:16;4.90;99.90
27741;DHT22;15134;48.768;9.184;2023-02-01T01:11:42;4.90;99.90
27741;DHT22;15134;48.768;9.184;2023-02-01T01:14:11;4.90;99.90
27741;DHT22;15134;48.768;9.184;2023-02-01T01:16:37;5.00;99.90
27741;DHT22;15134;48.768;9.184;2023-02-01T01:19:03;4.90;99.90
27741;DHT22;15134;48.768;9.184;2023-02-01T01:21:29;5.00;99.90
27741;DHT22;15134;48.768;9.184;2023-02-01T01:23:55;5.00;99.90
27741;DHT22;15134;48.768;9.184;2023-02-01T01:26:24;5.00;99.90
27741;DHT22;15134;48.768;9.184;2023-02-01T01:28:50;5.00;99.90
27741;DHT22;15134;48.768;9.184;2023-02-01T01:31:18;4.90;99.90
27741;DHT22;15134;48.768;9.184;2023-02-01T01:33:48;4.90;99.90
27741;DHT22;15134;48.768;9.184;2023-02-01T01:36:16;4.90;99.90
27741;DHT22;15134;48.768;9.184;2023-02-01T01:38:42;4.90;99.90
27741;DHT22;15134;48.768;9.184;2023-02-01T01:41:13;4.90;99.90
27741;DHT22;15134;48.768;9.184;2023-02-01T01:43:48;4.90;99.90
27741;DHT22;15134;48.768;9.184;2023-02-01T01:46:19;4.90;99.90
27741;DHT22;15134;48.768;9.184;2023-02-01T01:49:05;5.00;99.90
27741;DHT22;15134;48.768;9.184;2023-02-01T01:51:37;4.90;99.90
27741;DHT22;15134;48.768;9.184;2023-02-01T01:54:28;4.90;99.90
27741;DHT22;15134;48.768;9.184;2023-02-01T01:56:59;5.00;99.90
27741;DHT22;15134;48.768;9.184;2023-02-01T01:59:26;5.00;99.90
27741;DHT22;15134;48.768;9.184;2023-02-01T02:01:52;5.00;99.90
27741;DHT22;15134;48.768;9.184;2023-02-01T02:04:19;5.00;99.90
27741;DHT22;15134;48.768;9.184;2023-02-01T02:06:50;5.00;99.90
27741;DHT22;15134;48.768;9.184;2023-02-01T02:09:17;5.00;99.90
27741;DHT22;15134;48.768;9.184;2023-02-01T02:11:43;5.00;99.90
27741;DHT22;15134;48.768;9.184;2023-02-01T02:14:11;5.00;99.90
27741;DHT22;15134;48.768;9.184;2023-02-01T02:33:50;5.10;99.90
27741;DHT22;15134;48.768;9.184;2023-02-01T02:36:39;5.10;99.90
27741;DHT22;15134;48.768;9.184;2023-02-01T02:39:38;5.10;99.90
27741;DHT22;15134;48.768;9.184;2023-02-01T02:42:36;5.10;99.90
27741;DHT22;15134;48.768;9.184;2023-02-01T02:45:41;5.10;99.90
27741;DHT22;15134;48.768;9.184;2023-02-01T02:49:04;5.10;99.90
27741;DHT22;15134;48.768;9.184;2023-02-01T02:56:53;5.00;99.90
27741;DHT22;15134;48.768;9.184;2023-02-01T02:59:40;5.00;99.90
27741;DHT22;15134;48.768;9.184;2023-02-01T03:02:30;5.00;99.90
27741;DHT22;15134;48.768;9.184;2023-02-01T03:05:15;5.00;99.90
27741;DHT22;15134;48.768;9.184;2023-02-01T03:13:28;5.00;99.90
27741;DHT22;15134;48.768;9.184;2023-02-01T03:21:37;5.10;99.90
27741;DHT22;15134;48.768;9.184;2023-02-01T03:24:09;5.10;99.90
27741;DHT22;15134;48.768;9.184;2023-02-01T03:26:40;5.10;99.90
27741;DHT22;15134;48.768;9.184;2023-02-01T03:29:18;5.10;99.90
27741;DHT22;15134;48.768;9.184;2023-02-01T03:31:45;5.10;99.90
27741;DHT22;15134;48.768;9.184;2023-02-01T03:34:12;5.20;99.90
27741;DHT22;15134;48.768;9.184;2023-02-01T03:36:58;5.20;99.90
27741;DHT22;15134;48.768;9.184;2023-02-01T03:39:34;5.10;99.90
27741;DHT22;15134;48.768;9.184;2023-02-01T03:42:05;5.10;99.90
27741;DHT22;15134;48.768;9.184;2023-02-01T03:44:35;5.10;99.90
27741;DHT22;15134;48.768;9.184;2023-02-01T03:47:18;5.10;99.90
27741;DHT22;15134;48.768;9.184;2023-02-01T03:49:57;5.10;99.90
27741;DHT22;15134;48.768;9.184;2023-02-01T03:52:31;5.10;99.90
27741;DHT22;15134;48.768;9.184;2023-02-01T03:55:02;5.10;99.90
27741;DHT22;15134;48.768;9.184;2023-02-01T03:57:32;5.10;99.90
27741;DHT22;15134;48.768;9.184;2023-02-01T04:00:20;5.10;99.90
27741;DHT22;15134;48.768;9.184;2023-02-01T04:02:49;5.20;99.90
27741;DHT22;15134;48.768;9.184;2023-02-01T04:05:15;5.20;99.90
27741;DHT22;15134;48.768;9.184;2023-02-01T04:07:48;5.20;99.90
27741;DHT22;15134;48.768;9.184;2023-02-01T04:10:16;5.20;99.90
27741;DHT22;15134;48.768;9.184;2023-02-01T04:12:42;5.20;99.90
27741;DHT22;15134;48.768;9.184;2023-02-01T04:15:08;5.20;99.90
27741;DHT22;15134;48.768;9.184;2023-02-01T04:17:34;5.20;99.90
27741;DHT22;15134;48.768;9.184;2023-02-01T04:20:00;5.10;99.90
27741;DHT22;15134;48.768;9.184;2023-02-01T04:22:25;5.10;99.90
27741;DHT22;15134;48.768;9.184;2023-02-01T04:24:51;5.10;99.90
27741;DHT22;15134;48.768;9.184;2023-02-01T04:27:17;5.10;99.90
27741;DHT22;15134;48.768;9.184;2023-02-01T04:29:43;5.10;99.90
27741;DHT22;15134;48.768;9.184;2023-02-01T04:32:10;5.10;99.90
27741;DHT22;15134;48.768;9.184;2023-02-01T04:34:36;5.10;99.90
27741;DHT22;15134;48.768;9.184;2023-02-01T04:37:02;5.10;99.90
27741;DHT22;15134;48.768;9.184;2023-02-01T04:39:28;5.10;99.90
27741;DHT22;15134;48.768;9.184;2023-02-01T04:41:54;5.10;99.90
27741;DHT22;15134;48.768;9.184;2023-02-01T04:44:20;5.10;99.90
27741;DHT22;15134;48.768;9.184;2023-02-01T04:46:47;5.10;99.90
27741;DHT22;15134;48.768;9.184;2023-02-01T04:49:14;5.10;99.90
27741;DHT22;15134;48.768;9.184;2023-02-01T04:51:42;5.20;99.90
27741;DHT22;15134;48.768;9.184;2023-02-01T04:54:08;5.20;99.90
27741;DHT22;15134;48.768;9.184;2023-02-01T04:56:34;5.20;99.90
27741;DHT22;15134;48.768;9.184;2023-02-01T04:59:03;5.20;99.90
27741;DHT22;15134;48.768;9.184;2023-02-01T05:01:31;5.20;99.90
27741;DHT22;15134;48.768;9.184;2023-02-01T05:03:57;5.30;99.90
27741;DHT22;15134;48.768;9.184;2023-02-01T05:06:25;5.20;99.90
27741;DHT22;15134;48.768;9.184;2023-02-01T05:08:51;5.30;99.90
27741;DHT22;15134;48.768;9.184;2023-02-01T05:11:17;5.20;99.90
27741;DHT22;15134;48.768;9.184;2023-02-01T05:14:02;5.20;99.90
27741;DHT22;15134;48.768;9.184;2023-02-01T05:16:30;5.20;99.90
27741;DHT22;15134;48.768;9.184;2023-02-01T05:18:55;5.20;99.90
27741;DHT22;15134;48.768;9.184;2023-02-01T05:21:21;5.30;99.90
27741;DHT22;15134;48.768;9.184;2023-02-01T05:23:50;5.30;99.90
27741;DHT22;15134;48.768;9.184;2023-02-01T05:26:35;5.30;99.90
27741;DHT22;15134;48.768;9.184;2023-02-01T05:29:03;5.30;99.90
27741;DHT22;15134;48.768;9.184;2023-02-01T05:31:30;5.30;99.90
27741;DHT22;15134;48.768;9.184;2023-02-01T05:33:56;5.40;99.90
27741;DHT22;15134;48.768;9.184;2023-02-01T05:36:21;5.40;99.90
27741;DHT22;15134;48.768;9.184;2023-02-01T05:38:50;5.40;99.90
27741;DHT22;15134;48.768;9.184;2023-02-01T05:41:16;5.30;99.90
27741;DHT22;15134;48.768;9.184;2023-02-01T05:43:41;5.40;99.90
27741;DHT22;15134;48.768;9.184;2023-02-01T05:46:07;5.40;99.90
27741;DHT22;15134;48.768;9.184;2023-02-01T05:48:39;5.40;99.90
27741;DHT22;15134;48.768;9.184;2023-02-01T05:51:06;5.40;99.90
27741;DHT22;15134;48.768;9.184;2023-02-01T05:53:32;5.40;99.90
27741;DHT22;15134;48.768;9.184;2023-02-01T05:55:57;5.40;99.90
27741;DHT22;15134;48.768;9.184;2023-02-01T05:58:23;5.40;99.90
27741;DHT22;15134;48.768;9.184;2023-02-01T06:00:50;5.30;99.90
27741;DHT22;15134;48.768;9.184;2023-02-01T06:03:16;5.40;99.90
27741;DHT22;15134;48.768;9.184;2023-02-01T06:05:46;5.30;99.90
27741;DHT22;15134;48.768;9.184;2023-02-01T06:08:13;5.30;99.90
27741;DHT22;15134;48.768;9.184;2023-02-01T06:10:39;5.30;99.90
27741;DHT22;15134;48.768;9.184;2023-02-01T06:13:05;5.30;99.90
27741;DHT22;15134;48.768;9.184;2023-02-01T06:15:31;5.30;99.90
27741;DHT22;15134;48.768;9.184;2023-02-01T06:17:57;5.20;99.90
27741;DHT22;15134;48.768;9.184;2023-02-01T06:20:32;5.10;99.90
27741;DHT22;15134;48.768;9.184;2023-02-01T06:22:58;5.10;99.90
27741;DHT22;15134;48.768;9.184;2023-02-01T06:25:24;5.10;99.90
27741;DHT22;15134;48.768;9.184;2023-02-01T06:27:49;5.10;99.90
27741;DHT22;15134;48.768;9.184;2023-02-01T06:30:15;5.10;99.90
27741;DHT22;15134;48.768;9.184;2023-02-01T06:32:42;5.10;99.90
27741;DHT22;15134;48.768;9.184;2023-02-01T06:35:09;5.10;99.90
27741;DHT22;15134;48.768;9.184;2023-02-01T06:37:41;5.10;99.90
27741;DHT22;15134;48.768;9.184;2023-02-01T06:40:07;5.10;99.90
27741;DHT22;15134;48.768;9.184;2023-02-01T06:42:34;5.10;99.90
27741;DHT22;15134;48.768;9.184;2023-02-01T06:44:59;5.20;99.90
27741;DHT22;15134;48.768;9.184;2023-02-01T06:47:28;5.20;99.90
27741;DHT22;15134;48.768;9.184;2023-02-01T06:49:54;5.20;99.90
27741;DHT22;15134;48.768;9.184;2023-02-01T06:52:20;5.20;99.90
27741;DHT22;15134;48.768;9.184;2023-02-01T06:54:46;5.30;99.90
27741;DHT22;15134;48.768;9.184;2023-02-01T06:57:11;5.30;99.90
27741;DHT22;15134;48.768;9.184;2023-02-01T06:59:37;5.30;99.90
27741;DHT22;15134;48.768;9.184;2023-02-01T07:02:05;5.30;99.90
27741;DHT22;15134;48.768;9.184;2023-02-01T07:04:31;5.30;99.90
27741;DHT22;15134;48.768;9.184;2023-02-01T07:06:57;5.30;99.90
27741;DHT22;15134;48.768;9.184;2023-02-01T07:09:24;5.30;99.90
27741;DHT22;15134;48.768;9.184;2023-02-01T07:11:50;5.30;99.90
27741;DHT22;15134;48.768;9.184;2023-02-01T07:14:16;5.40;99.90
27741;DHT22;15134;48.768;9.184;2023-02-01T07:16:41;5.40;99.90
27741;DHT22;15134;48.768;9.184;2023-02-01T07:19:07;5.40;99.90
27741;DHT22;15134;48.768;9.184;2023-02-01T07:21:33;5.40;99.90
27741;DHT22;15134;48.768;9.184;2023-02-01T07:23:59;5.40;99.90
27741;DHT22;15134;48.768;9.184;2023-02-01T07:26:25;5.40;99.90
27741;DHT22;15134;48.768;9.184;2023-02-01T07:28:53;5.40;99.90
27741;DHT22;15134;48.768;9.184;2023-02-01T07:31:19;5.40;99.90
27741;DHT22;15134;48.768;9.184;2023-02-01T07:33:48;5.50;99.90
27741;DHT22;15134;48.768;9.184;2023-02-01T07:36:17;5.50;99.90
27741;DHT22;15134;48.768;9.184;2023-02-01T07:38:43;5.60;99.90
27741;DHT22;15134;48.768;9.184;2023-02-01T07:41:10;5.50;99.90
27741;DHT22;15134;48.768;9.184;2023-02-01T07:43:36;5.60;99.90
27741;DHT22;15134;48.768;9.184;2023-02-01T07:46:03;5.60;99.90
27741;DHT22;15134;48.768;9.184;2023-02-01T07:48:30;5.50;99.90
27741;DHT22;15134;48.768;9.184;2023-02-01T07:51:00;5.60;99.90
27741;DHT22;15134;48.768;9.184;2023-02-01T07:53:26;5.60;99.90
27741;DHT22;15134;48.768;9.184;2023-02-01T07:55:53;5.70;99.90
27741;DHT22;15134;48.768;9.184;2023-02-01T07:58:27;5.80;99.90
27741;DHT22;15134;48.768;9.184;2023-02-01T08:00:54;5.80;99.90
27741;DHT22;15134;48.768;9.184;2023-02-01T08:03:41;5.80;99.90
27741;DHT22;15134;48.768;9.184;2023-02-01T08:06:09;5.80;99.90
27741;DHT22;15134;48.768;9.184;2023-02-01T08:08:35;5.80;99.90
27741;DHT22;15134;48.768;9.184;2023-02-01T08:11:04;5.90;99.90
27741;DHT22;15134;48.768;9.184;2023-02-01T08:13:30;5.90;99.90
27741;DHT22;15134;48.768;9.184;2023-02-01T08:16:01;5.90;99.90
27741;DHT22;15134;48.768;9.184;2023-02-01T08:18:27;5.90;99.90
27741;DHT22;15134;48.768;9.184;2023-02-01T08:20:53;5.90;99.90
27741;DHT22;15134;48.768;9.184;2023-02-01T08:23:20;5.90;99.90
27741;DHT22;15134;48.768;9.184;2023-02-01T08:25:46;5.90;99.90
27741;DHT22;15134;48.768;9.184;2023-02-01T08:28:12;6.00;99.90
27741;DHT22;15134;48.768;9.184;2023-02-01T08:30:38;6.00;99.90
27741;DHT22;15134;48.768;9.184;2023-02-01T08:33:05;6.00;99.90
27741;DHT22;15134;48.768;9.184;2023-02-01T08:35:34;6.00;99.90
27741;DHT22;15134;48.768;9.184;2023-02-01T08:38:00;6.10;99.90
27741;DHT22;15134;48.768;9.184;2023-02-01T08:40:26;6.10;99.90
27741;DHT22;15134;48.768;9.184;2023-02-01T08:42:52;6.10;99.90
27741;DHT22;15134;48.768;9.184;2023-02-01T08:45:24;6.20;99.90
27741;DHT22;15134;48.768;9.184;2023-02-01T08:47:59;6.20;99.90
27741;DHT22;15134;48.768;9.184;2023-02-01T08:50:25;6.30;99.90
27741;DHT22;15134;48.768;9.184;2023-02-01T08:52:52;6.40;99.90
27741;DHT22;15134;48.768;9.184;2023-02-01T08:55:18;6.50;99.90
27741;DHT22;15134;48.768;9.184;2023-02-01T08:57:44;6.50;99.90
27741;DHT22;15134;48.768;9.184;2023-02-01T09:00:15;6.50;99.90
27741;DHT22;15134;48.768;9.184;2023-02-01T09:02:42;6.50;99.90
27741;DHT22;15134;48.768;9.184;2023-02-01T09:05:08;6.50;99.90
27741;DHT22;15134;48.768;9.184;2023-02-01T09:07:34;6.40;99.90
27741;DHT22;15134;48.768;9.184;2023-02-01T09:10:00;6.40;99.90
27741;DHT22;15134;48.768;9.184;2023-02-01T09:12:28;6.40;99.90
27741;DHT22;15134;48.768;9.184;2023-02-01T09:14:57;6.40;99.90
27741;DHT22;15134;48.768;9.184;2023-02-01T09:17:26;6.40;99.90
27741;DHT22;15134;48.768;9.184;2023-02-01T09:19:51;6.40;99.90
27741;DHT22;15134;48.768;9.184;2023-02-01T09:22:20;6.40;99.90
27741;DHT22;15134;48.768;9.184;2023-02-01T09:24:47;6.30;99.90
27741;DHT22;15134;48.768;9.184;2023-02-01T09:27:13;6.30;99.90
27741;DHT22;15134;48.768;9.184;2023-02-01T09:29:39;6.30;99.90
27741;DHT22;15134;48.768;9.184;2023-02-01T09:32:05;6.30;99.90
27741;DHT22;15134;48.768;9.184;2023-02-01T09:34:38;6.40;99.90
27741;DHT22;15134;48.768;9.184;2023-02-01T09:37:04;6.40;99.90
27741;DHT22;15134;48.768;9.184;2023-02-01T09:39:29;6.50;99.90
27741;DHT22;15134;48.768;9.184;2023-02-01T09:42:20;6.60;99.90
27741;DHT22;15134;48.768;9.184;2023-02-01T09:45:22;6.80;99.90
27741;DHT22;15134;48.768;9.184;2023-02-01T09:47:54;6.90;99.90
27741;DHT22;15134;48.768;9.184;2023-02-01T09:50:30;7.00;99.90
27741;DHT22;15134;48.768;9.184;2023-02-01T09:53:15;7.10;99.90
27741;DHT22;15134;48.768;9.184;2023-02-01T09:55:58;7.20;99.90
27741;DHT22;15134;48.768;9.184;2023-02-01T09:58:47;7.30;99.90
27741;DHT22;15134;48.768;9.184;2023-02-01T10:01:23;7.30;99.90
27741;DHT22;15134;48.768;9.184;2023-02-01T10:03:51;7.20;99.90
27741;DHT22;15134;48.768;9.184;2023-02-01T10:06:40;7.20;99.90
27741;DHT22;15134;48.768;9.184;2023-02-01T10:26:42;7.10;99.90
27741;DHT22;15134;48.768;9.184;2023-02-01T10:29:20;7.20;99.90
27741;DHT22;15134;48.768;9.184;2023-02-01T10:31:48;7.20;99.90
27741;DHT22;15134;48.768;9.184;2023-02-01T10:34:34;7.30;99.90
27741;DHT22;15134;48.768;9.184;2023-02-01T10:37:10;7.50;99.90
27741;DHT22;15134;48.768;9.184;2023-02-01T10:39:37;7.60;99.90
27741;DHT22;15134;48.768;9.184;2023-02-01T10:42:03;7.60;99.90
27741;DHT22;15134;48.768;9.184;2023-02-01T10:44:37;7.60;99.90
27741;DHT22;15134;48.768;9.184;2023-02-01T10:47:07;7.50;99.90
27741;DHT22;15134;48.768;9.184;2023-02-01T10:52:25;7.50;99.90
27741;DHT22;15134;48.768;9.184;2023-02-01T10:54:54;7.50;99.90
27741;DHT22;15134;48.768;9.184;2023-02-01T10:57:25;7.50;99.90
27741;DHT22;15134;48.768;9.184;2023-02-01T10:59:54;7.60;99.90
27741;DHT22;15134;48.768;9.184;2023-02-01T11:02:34;7.60;99.90
27741;DHT22;15134;48.768;9.184;2023-02-01T11:05:02;7.60;99.90
27741;DHT22;15134;48.768;9.184;2023-02-01T11:07:29;7.60;99.90
27741;DHT22;15134;48.768;9.184;2023-02-01T11:09:55;7.60;99.90
27741;DHT22;15134;48.768;9.184;2023-02-01T11:12:34;7.50;99.90
27741;DHT22;15134;48.768;9.184;2023-02-01T11:15:21;7.40;99.90
27741;DHT22;15134;48.768;9.184;2023-02-01T11:17:49;7.40;99.90
27741;DHT22;15134;48.768;9.184;2023-02-01T11:20:39;7.40;99.90
27741;DHT22;15134;48.768;9.184;2023-02-01T11:23:16;7.40;99.90
27741;DHT22;15134;48.768;9.184;2023-02-01T11:25:53;7.40;99.90
27741;DHT22;15134;48.768;9.184;2023-02-01T11:28:23;7.40;99.90
27741;DHT22;15134;48.768;9.184;2023-02-01T11:30:51;7.30;99.90
27741;DHT22;15134;48.768;9.184;2023-02-01T11:33:20;7.30;99.90
27741;DHT22;15134;48.768;9.184;2023-02-01T11:35:51;7.30;99.90
27741;DHT22;15134;48.768;9.184;2023-02-01T11:38:32;7.40;99.90
27741;DHT22;15134;48.768;9.184;2023-02-01T11:41:20;7.50;99.90
27741;DHT22;15134;48.768;9.184;2023-02-01T11:44:20;7.60;99.90
27741;DHT22;15134;48.768;9.184;2023-02-01T11:46:46;7.60;99.90
27741;DHT22;15134;48.768;9.184;2023-02-01T11:49:26;7.60;99.90
27741;DHT22;15134;48.768;9.184;2023-02-01T11:52:05;7.60;99.90
27741;DHT22;15134;48.768;9.184;2023-02-01T11:54:59;7.50;99.90
27741;DHT22;15134;48.768;9.184;2023-02-01T11:57:43;7.50;99.90
27741;DHT22;15134;48.768;9.184;2023-02-01T12:06:21;7.70;99.90
27741;DHT22;15134;48.768;9.184;2023-02-01T12:12:21;7.70;99.90
27741;DHT22;15134;48.768;9.184;2023-02-01T12:21:04;7.50;99.90
27741;DHT22;15134;48.768;9.184;2023-02-01T12:26:42;7.40;99.90
27741;DHT22;15134;48.768;9.184;2023-02-01T12:35:03;7.40;99.90
27741;DHT22;15134;48.768;9.184;2023-02-01T12:37:49;7.30;99.90
27741;DHT22;15134;48.768;9.184;2023-02-01T12:40:53;7.30;99.90
27741;DHT22;15134;48.768;9.184;2023-02-01T12:46:37;7.10;99.90
27741;DHT22;15134;48.768;9.184;2023-02-01T12:49:19;7.10;99.90
27741;DHT22;15134;48.768;9.184;2023-02-01T12:51:53;7.10;99.90
27741;DHT22;15134;48.768;9.184;2023-02-01T12:54:41;7.10;99.90
27741;DHT22;15134;48.768;9.184;2023-02-01T12:57:13;7.10;99.90
27741;DHT22;15134;48.768;9.184;2023-02-01T13:00:00;7.00;99.90
27741;DHT22;15134;48.768;9.184;2023-02-01T13:02:48;7.00;99.90
27741;DHT22;15134;48.768;9.184;2023-02-01T13:05:28;7.00;99.90
27741;DHT22;15134;48.768;9.184;2023-02-01T13:08:10;6.90;99.90
27741;DHT22;15134;48.768;9.184;2023-02-01T13:10:45;6.90;99.90
27741;DHT22;15134;48.768;9.184;2023-02-01T13:13:33;6.90;99.90
27741;DHT22;15134;48.768;9.184;2023-02-01T13:16:30;6.90;99.90
27741;DHT22;15134;48.768;9.184;2023-02-01T13:19:24;6.90;99.90
27741;DHT22;15134;48.768;9.184;2023-02-01T13:22:19;7.00;99.90
27741;DHT22;15134;48.768;9.184;2023-02-01T13:24:58;7.00;99.90
27741;DHT22;15134;48.768;9.184;2023-02-01T13:27:35;7.00;99.90
27741;DHT22;15134;48.768;9.184;2023-02-01T13:30:06;7.10;99.90
27741;DHT22;15134;48.768;9.184;2023-02-01T13:43:40;7.10;99.90
27741;DHT22;15134;48.768;9.184;2023-02-01T13:46:09;7.10;99.90
27741;DHT22;15134;48.768;9.184;2023-02-01T13:51:15;7.10;99.90
27741;DHT22;15134;48.768;9.184;2023-02-01T13:53:48;7.10;99.90
27741;DHT22;15134;48.768;9.184;2023-02-01T13:56:18;7.10;99.90
27741;DHT22;15134;48.768;9.184;2023-02-01T13:58:48;7.00;99.90
27741;DHT22;15134;48.768;9.184;2023-02-01T14:03:58;7.00;99.90
27741;DHT22;15134;48.768;9.184;2023-02-01T14:15:26;6.90;99.90
27741;DHT22;15134;48.768;9.184;2023-02-01T14:17:52;7.00;99.90
27741;DHT22;15134;48.768;9.184;2023-02-01T14:20:40;7.00;99.90
27741;DHT22;15134;48.768;9.184;2023-02-01T14:23:15;7.10;99.90
27741;DHT22;15134;48.768;9.184;2023-02-01T14:25:42;7.10;99.90
27741;DHT22;15134;48.768;9.184;2023-02-01T14:28:27;7.00;99.90
27741;DHT22;15134;48.768;9.184;2023-02-01T14:30:54;7.00;99.90
27741;DHT22;15134;48.768;9.184;2023-02-01T14:33:23;7.00;99.90
27741;DHT22;15134;48.768;9.184;2023-02-01T14:36:16;7.00;99.90
27741;DHT22;15134;48.768;9.184;2023-02-01T14:38:48;7.00;99.90
27741;DHT22;15134;48.768;9.184;2023-02-01T14:41:30;7.00;99.90
27741;DHT22;15134;48.768;9.184;2023-02-01T14:49:58;6.90;99.90
27741;DHT22;15134;48.768;9.184;2023-02-01T14:52:37;6.90;99.90
27741;DHT22;15134;48.768;9.184;2023-02-01T14:58:40;6.90;99.90
27741;DHT22;15134;48.768;9.184;2023-02-01T15:01:17;6.90;99.90
27741;DHT22;15134;48.768;9.184;2023-02-01T15:04:03;6.80;99.90
27741;DHT22;15134;48.768;9.184;2023-02-01T15:07:05;6.90;99.90
27741;DHT22;15134;48.768;9.184;2023-02-01T15:09:36;6.90;99.90
27741;DHT22;15134;48.768;9.184;2023-02-01T15:14:39;6.80;99.90
27741;DHT22;15134;48.768;9.184;2023-02-01T15:17:28;6.80;99.90
27741;DHT22;15134;48.768;9.184;2023-02-01T15:20:23;6.80;99.90
27741;DHT22;15134;48.768;9.184;2023-02-01T15:23:04;6.80;99.90
27741;DHT22;15134;48.768;9.184;2023-02-01T15:25:37;6.80;99.90
27741;DHT22;15134;48.768;9.184;2023-02-01T15:28:04;6.80;99.90
27741;DHT22;15134;48.768;9.184;2023-02-01T15:30:33;6.80;99.90
27741;DHT22;15134;48.768;9.184;2023-02-01T15:33:17;6.80;99.90
27741;DHT22;15134;48.768;9.184;2023-02-01T15:35:49;6.80;99.90
27741;DHT22;15134;48.768;9.184;2023-02-01T15:38:32;6.80;99.90
27741;DHT22;15134;48.768;9.184;2023-02-01T15:41:14;6.70;99.90
27741;DHT22;15134;48.768;9.184;2023-02-01T15:44:02;6.70;99.90
27741;DHT22;15134;48.768;9.184;2023-02-01T15:46:35;6.70;99.90
27741;DHT22;15134;48.768;9.184;2023-02-01T15:49:02;6.70;99.90
27741;DHT22;15134;48.768;9.184;2023-02-01T15:51:31;6.70;99.90
27741;DHT22;15134;48.768;9.184;2023-02-01T15:54:08;6.70;99.90
27741;DHT22;15134;48.768;9.184;2023-02-01T15:56:44;6.70;99.90
27741;DHT22;15134;48.768;9.184;2023-02-01T15:59:21;6.70;99.90
27741;DHT22;15134;48.768;9.184;2023-02-01T16:01:48;6.70;99.90
27741;DHT22;15134;48.768;9.184;2023-02-01T16:04:19;6.70;99.90
27741;DHT22;15134;48.768;9.184;2023-02-01T16:06:54;6.70;99.90
27741;DHT22;15134;48.768;9.184;2023-02-01T16:09:23;6.60;99.90
27741;DHT22;15134;48.768;9.184;2023-02-01T16:11:59;6.70;99.90
27741;DHT22;15134;48.768;9.184;2023-02-01T16:14:26;6.70;99.90
27741;DHT22;15134;48.768;9.184;2023-02-01T16:16:54;6.70;99.90
27741;DHT22;15134;48.768;9.184;2023-02-01T16:19:20;6.70;99.90
27741;DHT22;15134;48.768;9.184;2023-02-01T16:21:46;6.80;99.90
27741;DHT22;15134;48.768;9.184;2023-02-01T16:24:12;6.70;99.90
27741;DHT22;15134;48.768;9.184;2023-02-01T16:26:38;6.70;99.90
27741;DHT22;15134;48.768;9.184;2023-02-01T16:29:05;6.70;99.90
27741;DHT22;15134;48.768;9.184;2023-02-01T16:31:38;6.70;99.90
27741;DHT22;15134;48.768;9.184;2023-02-01T16:34:04;6.70;99.90
27741;DHT22;15134;48.768;9.184;2023-02-01T16:36:32;6.70;99.90
27741;DHT22;15134;48.768;9.184;2023-02-01T16:38:58;6.70;99.90
27741;DHT22;15134;48.768;9.184;2023-02-01T16:41:25;6.70;99.90
27741;DHT22;15134;48.768;9.184;2023-02-01T16:43:53;6.70;99.90
27741;DHT22;15134;48.768;9.184;2023-02-01T16:46:23;6.70;99.90
27741;DHT22;15134;48.768;9.184;2023-02-01T16:48:55;6.70;99.90
27741;DHT22;15134;48.768;9.184;2023-02-01T16:51:22;6.70;99.90
27741;DHT22;15134;48.768;9.184;2023-02-01T16:53:48;6.70;99.90
27741;DHT22;15134;48.768;9.184;2023-02-01T16:56:20;6.70;99.90
27741;DHT22;15134;48.768;9.184;2023-02-01T16:58:46;6.70;99.90
27741;DHT22;15134;48.768;9.184;2023-02-01T17:01:14;6.60;99.90
27741;DHT22;15134;48.768;9.184;2023-02-01T17:03:42;6.60;99.90
27741;DHT22;15134;48.768;9.184;2023-02-01T17:06:15;6.60;99.90
27741;DHT22;15134;48.768;9.184;2023-02-01T17:08:45;6.50;99.90
27741;DHT22;15134;48.768;9.184;2023-02-01T17:11:14;6.50;99.90
27741;DHT22;15134;48.768;9.184;2023-02-01T17:13:40;6.40;99.90
27741;DHT22;15134;48.768;9.184;2023-02-01T17:18:46;6.40;99.90
27741;DHT22;15134;48.768;9.184;2023-02-01T17:21:14;6.40;99.90
27741;DHT22;15134;48.768;9.184;2023-02-01T17:23:39;6.40;99.90
27741;DHT22;15134;48.768;9.184;2023-02-01T17:29:01;6.40;99.90
27741;DHT22;15134;48.768;9.184;2023-02-01T17:31:27;6.50;99.90
27741;DHT22;15134;48.768;9.184;2023-02-01T17:33:53;6.50;99.90
27741;DHT22;15134;48.768;9.184;2023-02-01T17:36:19;6.50;99.90
27741;DHT22;15134;48.768;9.184;2023-02-01T17:38:44;6.50;99.90
27741;DHT22;15134;48.768;9.184;2023-02-01T17:41:12;6.50;99.90
27741;DHT22;15134;48.768;9.184;2023-02-01T17:43:39;6.50;99.90
27741;DHT22;15134;48.768;9.184;2023-02-01T17:46:17;6.50;99.90
27741;DHT22;15134;48.768;9.184;2023-02-01T17:48:45;6.50;99.90
27741;DHT22;15134;48.768;9.184;2023-02-01T17:51:18;6.50;99.90
27741;DHT22;15134;48.768;9.184;2023-02-01T17:53:44;6.40;99.90
27741;DHT22;15134;48.768;9.184;2023-02-01T17:56:18;6.40;99.90
27741;DHT22;15134;48.768;9.184;2023-02-01T17:58:45;6.40;99.90
27741;DHT22;15134;48.768;9.184;2023-02-01T18:01:13;6.40;99.90
27741;DHT22;15134;48.768;9.184;2023-02-01T18:03:39;6.50;99.90
27741;DHT22;15134;48.768;9.184;2023-02-01T18:06:09;6.50;99.90
27741;DHT22;15134;48.768;9.184;2023-02-01T18:08:37;6.40;99.90
27741;DHT22;15134;48.768;9.184;2023-02-01T18:11:14;6.40;99.90
27741;DHT22;15134;48.768;9.184;2023-02-01T18:13:41;6.40;99.90
27741;DHT22;15134;48.768;9.184;2023-02-01T18:16:20;6.40;99.90